Time;durP1;ratioP1;P1;durP2;ratioP2;P2;SDS_P1;SDS_P2;PMS_P1;PMS_P2;Temp;Humidity;BMP_temperature;BMP_pressure;BME280_temperature;BME280_humidity;BME280_pressure;Samples;Min_cycle;Max_cycle;Signal;HPM_P1;HPM_P2
2023/04/04 00:02:14;;;;;;;1.83;1.10;;;;;;;;;;6240129;28;20089;-73
2023/04/04 00:05:16;;;;;;;4.65;1.38;;;;;;;;;;6239004;28;20065;-72
2023/04/04 00:08:19;;;;;;;1.80;1.35;;;;;;;;;;6241167;28;20061;-73
2023/04/04 00:11:27;;;;;;;6.43;1.42;;;;;;;;;;6242380;28;20077;-74
2023/04/04 00:14:28;;;;;;;3.17;1.35;;;;;;;;;;6238246;28;20265;-74
2023/04/04 00:17:33;;;;;;;4.32;1.48;;;;;;;;;;6240705;28;20348;-73
2023/04/04 00:20:35;;;;;;;3.88;1.30;;;;;;;;;;6240961;28;20077;-73
2023/04/04 00:23:53;;;;;;;2.65;1.17;;;;;;;;;;6236152;28;20395;-73
2023/04/04 00:26:55;;;;;;;3.60;1.33;;;;;;;;;;6235972;28;20053;-73
2023/04/04 00:29:57;;;;;;;3.20;1.30;;;;;;;;;;6238606;28;20053;-72
2023/04/04 00:33:00;;;;;;;3.08;1.55;;;;;;;;;;6238745;28;20250;-72
2023/04/04 00:36:02;;;;;;;2.78;1.73;;;;;;;;;;6243092;28;20053;-72
2023/04/04 00:39:06;;;;;;;2.55;1.38;;;;;;;;;;6244632;28;20053;-73
2023/04/04 00:42:07;;;;;;;3.47;1.35;;;;;;;;;;6242654;28;20065;-73
2023/04/04 00:45:10;;;;;;;5.28;1.92;;;;;;;;;;6243126;28;20061;-72
2023/04/04 00:48:12;;;;;;;2.67;1.60;;;;;;;;;;6248434;28;20065;-73
2023/04/04 00:51:13;;;;;;;5.22;1.40;;;;;;;;;;6242959;28;20049;-73
2023/04/04 00:54:16;;;;;;;3.60;1.45;;;;;;;;;;6243968;28;20049;-73
2023/04/04 00:57:19;;;;;;;3.17;1.40;;;;;;;;;;6240620;28;20501;-73
2023/04/04 01:00:21;;;;;;;2.42;1.35;;;;;;;;;;6246770;28;20061;-72
2023/04/04 01:03:23;;;;;;;3.38;1.52;;;;;;;;;;6244716;28;20057;-73
2023/04/04 01:06:26;;;;;;;3.25;1.80;;;;;;;;;;6243539;28;20218;-73
2023/04/04 01:09:30;;;;;;;6.45;1.60;;;;;;;;;;6242461;28;20053;-75
2023/04/04 01:12:32;;;;;;;4.35;1.50;;;;;;;;;;6245381;28;20049;-73
2023/04/04 01:15:33;;;;;;;3.65;1.70;;;;;;;;;;6241991;28;20074;-73
2023/04/04 01:18:37;;;;;;;5.80;1.40;;;;;;;;;;6243032;28;20107;-73
2023/04/04 01:21:39;;;;;;;3.13;1.60;;;;;;;;;;6244884;28;20069;-72
2023/04/04 01:24:43;;;;;;;4.93;1.88;;;;;;;;;;6245190;28;20703;-72
2023/04/04 01:27:46;;;;;;;3.17;1.65;;;;;;;;;;6247261;28;20053;-71
2023/04/04 01:30:47;;;;;;;5.32;1.70;;;;;;;;;;6239346;28;20103;-73
2023/04/04 01:33:54;;;;;;;2.38;1.40;;;;;;;;;;6242945;28;20111;-72
2023/04/04 01:37:01;;;;;;;4.20;2.08;;;;;;;;;;6239739;28;20443;-72
2023/04/04 01:40:08;;;;;;;6.47;2.78;;;;;;;;;;6244143;28;20377;-72
2023/04/04 01:43:11;;;;;;;3.13;1.40;;;;;;;;;;6243428;28;20053;-72
2023/04/04 01:46:13;;;;;;;4.22;1.27;;;;;;;;;;6239125;28;20269;-72
2023/04/04 01:49:15;;;;;;;3.70;1.38;;;;;;;;;;6243034;28;20127;-72
2023/04/04 01:52:17;;;;;;;4.15;1.92;;;;;;;;;;6242825;28;20049;-73
2023/04/04 01:55:19;;;;;;;3.58;1.50;;;;;;;;;;6238330;28;20127;-72
2023/04/04 01:58:22;;;;;;;3.85;1.80;;;;;;;;;;6244863;28;20091;-74
2023/04/04 02:01:24;;;;;;;3.65;1.40;;;;;;;;;;6243310;28;20329;-72
2023/04/04 02:04:25;;;;;;;4.28;1.70;;;;;;;;;;6241703;28;20207;-74
2023/04/04 02:07:27;;;;;;;5.05;1.63;;;;;;;;;;6241457;28;20058;-75
2023/04/04 02:10:29;;;;;;;5.70;1.63;;;;;;;;;;6241639;28;20057;-73
2023/04/04 02:13:32;;;;;;;3.30;1.20;;;;;;;;;;6241738;28;20053;-72
2023/04/04 02:16:34;;;;;;;5.00;1.58;;;;;;;;;;6241473;28;20045;-75
2023/04/04 02:19:37;;;;;;;3.38;1.67;;;;;;;;;;6241541;28;20045;-73
2023/04/04 02:22:38;;;;;;;6.38;1.50;;;;;;;;;;6240630;28;20070;-72
2023/04/04 02:25:40;;;;;;;3.05;1.50;;;;;;;;;;6239799;28;20054;-73
2023/04/04 02:28:43;;;;;;;4.80;1.77;;;;;;;;;;6246066;28;20053;-72
2023/04/04 02:31:44;;;;;;;5.53;1.60;;;;;;;;;;6241720;28;20231;-72
2023/04/04 02:34:46;;;;;;;2.35;1.30;;;;;;;;;;6241059;28;20053;-73
2023/04/04 02:37:48;;;;;;;3.55;1.60;;;;;;;;;;6241256;28;20049;-73
2023/04/04 02:40:49;;;;;;;4.50;1.40;;;;;;;;;;6241926;28;20053;-73
2023/04/04 02:43:53;;;;;;;4.22;1.80;;;;;;;;;;6241138;28;20210;-72
2023/04/04 02:46:54;;;;;;;3.83;1.33;;;;;;;;;;6240242;28;20345;-72
2023/04/04 02:49:56;;;;;;;4.05;1.52;;;;;;;;;;6241758;28;20113;-73
2023/04/04 02:53:00;;;;;;;5.10;1.48;;;;;;;;;;6233643;28;20081;-72
2023/04/04 02:56:02;;;;;;;3.97;1.40;;;;;;;;;;6240464;28;20120;-72
2023/04/04 02:59:07;;;;;;;4.55;1.55;;;;;;;;;;6244165;28;20053;-73
2023/04/04 03:02:09;;;;;;;3.00;1.37;;;;;;;;;;6242305;28;20116;-74
2023/04/04 03:05:10;;;;;;;6.25;1.50;;;;;;;;;;6243785;28;20062;-74
2023/04/04 03:08:12;;;;;;;5.03;1.38;;;;;;;;;;6239735;28;20049;-73
2023/04/04 03:11:17;;;;;;;5.15;2.40;;;;;;;;;;6241110;28;20054;-74
2023/04/04 03:14:20;;;;;;;4.78;1.63;;;;;;;;;;6238952;28;20053;-73
2023/04/04 03:17:22;;;;;;;3.13;1.73;;;;;;;;;;6240755;28;20104;-73
2023/04/04 03:20:24;;;;;;;4.00;1.33;;;;;;;;;;6239293;28;20115;-72
2023/04/04 03:23:26;;;;;;;4.15;1.30;;;;;;;;;;6241419;28;20045;-72
2023/04/04 03:26:28;;;;;;;12.57;2.13;;;;;;;;;;6239682;28;20359;-73
2023/04/04 03:29:31;;;;;;;5.25;1.83;;;;;;;;;;6237130;28;20058;-73
2023/04/04 03:32:33;;;;;;;3.37;1.90;;;;;;;;;;6239764;28;20107;-71
2023/04/04 03:35:38;;;;;;;4.53;1.63;;;;;;;;;;6240050;28;20049;-73
2023/04/04 03:38:40;;;;;;;7.70;1.63;;;;;;;;;;6236980;28;20062;-75
2023/04/04 03:41:42;;;;;;;4.05;1.70;;;;;;;;;;6237418;28;20111;-73
2023/04/04 03:44:45;;;;;;;11.52;1.95;;;;;;;;;;6236019;28;20057;-73
2023/04/04 03:47:47;;;;;;;4.28;1.67;;;;;;;;;;6240525;28;20073;-74
2023/04/04 03:50:49;;;;;;;5.07;1.60;;;;;;;;;;6240901;28;20056;-73
2023/04/04 03:53:50;;;;;;;4.20;1.60;;;;;;;;;;6240611;28;20060;-74
2023/04/04 03:56:52;;;;;;;9.02;1.60;;;;;;;;;;6239831;28;20057;-73
2023/04/04 03:59:55;;;;;;;3.90;1.30;;;;;;;;;;6239695;28;20057;-73
2023/04/04 04:02:57;;;;;;;6.43;2.00;;;;;;;;;;6237886;28;20085;-74
2023/04/04 04:05:59;;;;;;;2.50;1.60;;;;;;;;;;6239416;28;20053;-74
2023/04/04 04:09:01;;;;;;;4.22;1.60;;;;;;;;;;6241508;28;20095;-72
2023/04/04 04:12:02;;;;;;;5.63;1.73;;;;;;;;;;6238493;28;20050;-73
2023/04/04 04:15:07;;;;;;;5.22;1.63;;;;;;;;;;6242977;28;20615;-73
2023/04/04 04:18:08;;;;;;;2.75;1.70;;;;;;;;;;6244611;28;20073;-75
2023/04/04 04:21:10;;;;;;;3.03;1.65;;;;;;;;;;6245130;28;20350;-74
2023/04/04 04:24:12;;;;;;;3.60;1.40;;;;;;;;;;6245726;28;20053;-74
2023/04/04 04:27:13;;;;;;;3.35;1.67;;;;;;;;;;6243826;28;20345;-73
2023/04/04 04:30:16;;;;;;;5.65;2.22;;;;;;;;;;6243709;28;20116;-73
2023/04/04 04:33:18;;;;;;;12.65;1.90;;;;;;;;;;6242151;28;20158;-73
2023/04/04 04:36:19;;;;;;;5.75;1.73;;;;;;;;;;6243152;28;20348;-74
2023/04/04 04:39:21;;;;;;;4.05;2.20;;;;;;;;;;6242566;28;20049;-74
2023/04/04 04:42:23;;;;;;;2.97;1.42;;;;;;;;;;6244657;28;20081;-73
2023/04/04 04:45:26;;;;;;;7.13;2.00;;;;;;;;;;6242403;28;20057;-73
2023/04/04 04:48:28;;;;;;;4.53;1.88;;;;;;;;;;6241644;28;20096;-73
2023/04/04 04:51:29;;;;;;;4.95;1.63;;;;;;;;;;6242795;28;20128;-76
2023/04/04 04:54:31;;;;;;;8.15;2.35;;;;;;;;;;6244622;28;20057;-72
2023/04/04 04:57:34;;;;;;;4.20;1.65;;;;;;;;;;6247032;28;20052;-73
2023/04/04 05:00:37;;;;;;;4.93;1.90;;;;;;;;;;6242833;28;20245;-73
2023/04/04 05:03:40;;;;;;;12.13;2.40;;;;;;;;;;6242372;28;20080;-74
2023/04/04 05:06:43;;;;;;;7.88;2.20;;;;;;;;;;6241898;28;20053;-73
2023/04/04 05:09:44;;;;;;;3.53;1.80;;;;;;;;;;6243925;28;20053;-74
2023/04/04 05:12:47;;;;;;;5.25;2.03;;;;;;;;;;6241598;28;20052;-74
2023/04/04 05:15:50;;;;;;;6.78;2.08;;;;;;;;;;6244130;28;20067;-74
2023/04/04 05:18:51;;;;;;;5.70;1.92;;;;;;;;;;6240929;28;20054;-73
2023/04/04 05:21:53;;;;;;;6.32;2.00;;;;;;;;;;6243713;28;20057;-73
2023/04/04 05:24:55;;;;;;;7.32;2.10;;;;;;;;;;6241462;28;20054;-74
2023/04/04 05:27:57;;;;;;;6.13;1.92;;;;;;;;;;6245291;28;20057;-72
2023/04/04 05:31:00;;;;;;;6.22;2.00;;;;;;;;;;6241721;28;20240;-75
2023/04/04 05:34:07;;;;;;;5.55;1.98;;;;;;;;;;6243487;28;20058;-73
2023/04/04 05:37:08;;;;;;;5.28;2.33;;;;;;;;;;6241497;28;20056;-75
2023/04/04 05:40:11;;;;;;;8.13;1.95;;;;;;;;;;6241746;28;20133;-74
2023/04/04 05:43:13;;;;;;;4.50;1.92;;;;;;;;;;6243410;28;20371;-74
2023/04/04 05:46:16;;;;;;;8.10;2.10;;;;;;;;;;6245532;28;20349;-74
2023/04/04 05:49:18;;;;;;;5.25;1.95;;;;;;;;;;6242483;28;20392;-74
2023/04/04 05:52:19;;;;;;;7.47;2.25;;;;;;;;;;6243393;28;20045;-74
2023/04/04 05:55:21;;;;;;;5.05;1.92;;;;;;;;;;6239876;28;20054;-73
2023/04/04 05:58:23;;;;;;;4.07;2.03;;;;;;;;;;6243630;28;20077;-74
2023/04/04 06:01:28;;;;;;;3.92;2.05;;;;;;;;;;6241999;28;20292;-73
2023/04/04 06:04:29;;;;;;;5.45;2.30;;;;;;;;;;6242882;28;20079;-74
2023/04/04 06:07:34;;;;;;;6.18;2.40;;;;;;;;;;6242337;28;20092;-74
2023/04/04 06:10:36;;;;;;;4.10;1.80;;;;;;;;;;6241664;28;20112;-74
2023/04/04 06:13:37;;;;;;;5.55;2.00;;;;;;;;;;6244491;28;20081;-74
2023/04/04 06:16:41;;;;;;;7.88;2.00;;;;;;;;;;6242218;28;20065;-74
2023/04/04 06:19:43;;;;;;;11.48;2.28;;;;;;;;;;6240504;28;20337;-74
2023/04/04 06:22:44;;;;;;;7.80;3.15;;;;;;;;;;6238775;28;20255;-74
2023/04/04 06:25:46;;;;;;;8.45;2.10;;;;;;;;;;6243876;28;20049;-73
2023/04/04 06:28:48;;;;;;;6.50;2.05;;;;;;;;;;6240472;28;20389;-73
2023/04/04 06:31:51;;;;;;;4.82;2.05;;;;;;;;;;6247250;28;20233;-73
2023/04/04 06:34:53;;;;;;;7.03;2.20;;;;;;;;;;6243473;28;20286;-73
2023/04/04 06:37:55;;;;;;;4.88;1.85;;;;;;;;;;6243123;28;20046;-73
2023/04/04 06:40:57;;;;;;;6.20;2.00;;;;;;;;;;6242517;28;20100;-74
2023/04/04 06:43:59;;;;;;;9.15;1.90;;;;;;;;;;6240232;28;20046;-73
2023/04/04 06:47:02;;;;;;;5.13;2.17;;;;;;;;;;6239679;28;20071;-73
2023/04/04 06:50:04;;;;;;;7.38;2.08;;;;;;;;;;6240876;28;20231;-74
2023/04/04 06:53:06;;;;;;;9.30;1.98;;;;;;;;;;6240727;28;20057;-74
2023/04/04 06:56:09;;;;;;;5.53;1.88;;;;;;;;;;6239946;28;20112;-74
2023/04/04 06:59:11;;;;;;;4.78;1.55;;;;;;;;;;6238721;28;20054;-74
2023/04/04 07:02:14;;;;;;;6.03;1.80;;;;;;;;;;6242933;28;20250;-73
2023/04/04 07:05:17;;;;;;;5.95;1.52;;;;;;;;;;6240219;28;20273;-74
2023/04/04 07:08:19;;;;;;;5.05;2.00;;;;;;;;;;6244687;28;20136;-74
2023/04/04 07:11:22;;;;;;;4.78;1.60;;;;;;;;;;6238855;28;20353;-74
2023/04/04 07:14:24;;;;;;;4.03;2.00;;;;;;;;;;6243849;28;20057;-74
2023/04/04 07:17:27;;;;;;;3.72;1.83;;;;;;;;;;6237625;28;20281;-74
2023/04/04 07:20:29;;;;;;;4.10;1.73;;;;;;;;;;6243930;28;20256;-74
2023/04/04 07:23:31;;;;;;;3.00;1.70;;;;;;;;;;6244573;28;20054;-74
2023/04/04 07:26:33;;;;;;;5.22;1.90;;;;;;;;;;6239605;28;20064;-74
2023/04/04 07:29:35;;;;;;;5.45;2.50;;;;;;;;;;6241183;28;20087;-73
2023/04/04 07:32:38;;;;;;;3.25;1.70;;;;;;;;;;6241547;28;20056;-74
2023/04/04 07:35:40;;;;;;;6.28;1.75;;;;;;;;;;6243253;28;20222;-73
2023/04/04 07:38:42;;;;;;;9.02;1.90;;;;;;;;;;6243110;28;20112;-73
2023/04/04 07:41:45;;;;;;;4.00;1.40;;;;;;;;;;6241229;28;20051;-73
2023/04/04 07:44:47;;;;;;;3.73;1.50;;;;;;;;;;6230137;28;20049;-74
2023/04/04 07:48:00;;;;;;;6.38;1.60;;;;;;;;;;6239583;28;20351;-74
2023/04/04 07:51:05;;;;;;;4.82;1.70;;;;;;;;;;6239498;28;20514;-73
2023/04/04 07:54:07;;;;;;;7.90;1.83;;;;;;;;;;6242705;28;20158;-73
2023/04/04 07:57:09;;;;;;;7.40;2.05;;;;;;;;;;6239607;28;20053;-74
2023/04/04 08:00:12;;;;;;;5.63;1.85;;;;;;;;;;6239465;28;20065;-73
2023/04/04 08:03:16;;;;;;;4.95;2.08;;;;;;;;;;6239421;28;20060;-73
2023/04/04 08:06:17;;;;;;;;;;;;;;;;;;6242152;28;20041;-74
2023/04/04 08:09:19;;;;;;;7.45;1.75;;;;;;;;;;6238260;28;20321;-74
2023/04/04 08:12:21;;;;;;;4.47;1.65;;;;;;;;;;6241945;28;20109;-74
2023/04/04 08:15:23;;;;;;;7.97;2.40;;;;;;;;;;6240723;28;20045;-74
2023/04/04 08:18:26;;;;;;;5.55;2.00;;;;;;;;;;6241642;28;20107;-74
2023/04/04 08:21:28;;;;;;;4.40;2.03;;;;;;;;;;6238142;28;20356;-74
2023/04/04 08:24:29;;;;;;;6.13;2.10;;;;;;;;;;6239869;28;20049;-72
2023/04/04 08:27:31;;;;;;;6.13;2.30;;;;;;;;;;6238306;28;20214;-70
2023/04/04 08:30:33;;;;;;;7.57;1.92;;;;;;;;;;6239198;28;20061;-73
2023/04/04 08:33:36;;;;;;;4.70;1.85;;;;;;;;;;6236777;28;20081;-73
2023/04/04 08:36:38;;;;;;;6.28;2.08;;;;;;;;;;6242556;28;20058;-74
2023/04/04 08:39:39;;;;;;;5.45;1.70;;;;;;;;;;6242958;28;20061;-74
2023/04/04 08:42:43;;;;;;;6.15;2.03;;;;;;;;;;6239476;28;20057;-74
2023/04/04 08:45:45;;;;;;;8.48;2.30;;;;;;;;;;6238424;28;20054;-74
2023/04/04 08:48:50;;;;;;;3.53;1.60;;;;;;;;;;6238863;28;20049;-74
2023/04/04 08:51:52;;;;;;;8.95;2.10;;;;;;;;;;6241794;28;20042;-74
2023/04/04 08:54:54;;;;;;;8.68;1.90;;;;;;;;;;6239731;28;20063;-74
2023/04/04 08:57:56;;;;;;;6.90;2.35;;;;;;;;;;6245674;28;20068;-74
2023/04/04 09:00:57;;;;;;;10.23;1.98;;;;;;;;;;6239268;28;20046;-74
2023/04/04 09:04:01;;;;;;;5.90;2.10;;;;;;;;;;6243614;28;20053;-74
2023/04/04 09:07:04;;;;;;;10.13;2.20;;;;;;;;;;6243421;28;20088;-74
2023/04/04 09:10:08;;;;;;;6.18;2.00;;;;;;;;;;6244022;28;20057;-74
2023/04/04 09:13:10;;;;;;;3.67;1.90;;;;;;;;;;6242735;28;20053;-74
2023/04/04 09:16:12;;;;;;;4.40;1.88;;;;;;;;;;6243118;28;20109;-73
2023/04/04 09:19:15;;;;;;;4.68;2.22;;;;;;;;;;6241981;28;20046;-74
2023/04/04 09:22:17;;;;;;;6.45;1.90;;;;;;;;;;6243211;28;20069;-73
2023/04/04 09:25:19;;;;;;;8.32;2.05;;;;;;;;;;6241492;28;20292;-73
2023/04/04 09:28:22;;;;;;;7.43;2.00;;;;;;;;;;6242282;28;20054;-73
2023/04/04 09:31:24;;;;;;;3.40;2.00;;;;;;;;;;6240934;28;20109;-74
2023/04/04 09:34:28;;;;;;;6.47;1.92;;;;;;;;;;6244701;28;20067;-73
2023/04/04 09:37:30;;;;;;;8.85;1.90;;;;;;;;;;6244932;28;20059;-73
2023/04/04 09:40:32;;;;;;;5.43;2.10;;;;;;;;;;6245324;28;20054;-74
2023/04/04 09:43:34;;;;;;;4.85;1.90;;;;;;;;;;6243905;28;20053;-74
2023/04/04 09:46:36;;;;;;;5.53;2.35;;;;;;;;;;6241578;28;20052;-74
2023/04/04 09:49:39;;;;;;;5.32;2.30;;;;;;;;;;6241094;28;20099;-73
2023/04/04 09:52:43;;;;;;;11.77;2.63;;;;;;;;;;6244119;28;20064;-74
2023/04/04 09:55:50;;;;;;;4.70;2.50;;;;;;;;;;6242479;28;20129;-74
2023/04/04 09:58:52;;;;;;;6.93;2.10;;;;;;;;;;6242841;28;20210;-74
2023/04/04 10:01:54;;;;;;;5.38;2.08;;;;;;;;;;6243622;28;20372;-73
2023/04/04 10:04:58;;;;;;;9.90;2.38;;;;;;;;;;6233432;28;20065;-74
2023/04/04 10:08:00;;;;;;;6.65;2.03;;;;;;;;;;6242548;28;20786;-74
2023/04/04 10:11:03;;;;;;;8.10;2.17;;;;;;;;;;6243259;28;20120;-74
2023/04/04 10:14:05;;;;;;;6.78;2.15;;;;;;;;;;6240903;28;20245;-74
2023/04/04 10:17:09;;;;;;;8.23;2.53;;;;;;;;;;6239915;28;20053;-74
2023/04/04 10:20:12;;;;;;;6.22;2.25;;;;;;;;;;6244190;28;20092;-73
2023/04/04 10:23:15;;;;;;;6.53;2.75;;;;;;;;;;6241848;28;20237;-74
2023/04/04 10:26:16;;;;;;;8.32;2.83;;;;;;;;;;6241531;28;20184;-75
2023/04/04 10:29:20;;;;;;;6.35;2.25;;;;;;;;;;6244074;28;20057;-75
2023/04/04 10:32:24;;;;;;;6.05;2.65;;;;;;;;;;6242654;28;20099;-74
2023/04/04 10:35:27;;;;;;;5.82;2.20;;;;;;;;;;6239866;28;20080;-74
2023/04/04 10:38:32;;;;;;;5.20;2.25;;;;;;;;;;6240449;28;20115;-74
2023/04/04 10:41:36;;;;;;;7.88;2.75;;;;;;;;;;6243423;28;20046;-74
2023/04/04 10:44:39;;;;;;;3.72;2.15;;;;;;;;;;6239838;28;20063;-72
2023/04/04 10:47:41;;;;;;;8.60;2.60;;;;;;;;;;6249323;28;20333;-73
2023/04/04 10:50:44;;;;;;;20.02;11.55;;;;;;;;;;6241534;28;20049;-73
2023/04/04 10:53:46;;;;;;;36.35;20.30;;;;;;;;;;6244486;28;20135;-74
2023/04/04 10:56:48;;;;;;;27.25;12.55;;;;;;;;;;6241716;28;20057;-74
2023/04/04 10:59:57;;;;;;;28.15;16.63;;;;;;;;;;6240584;28;20050;-75
2023/04/04 11:03:00;;;;;;;27.52;13.05;;;;;;;;;;6243157;28;20049;-73
2023/04/04 11:06:14;;;;;;;67.65;38.65;;;;;;;;;;6244454;28;20049;-73
2023/04/04 11:09:51;;;;;;;13.13;5.25;;;;;;;;;;6244699;28;20046;-73
2023/04/04 11:12:55;;;;;;;6.38;2.80;;;;;;;;;;6240413;28;20073;-73
2023/04/04 11:15:58;;;;;;;;;;;;;;;;;;6237391;28;20699;-72
2023/04/04 11:19:00;;;;;;;6.10;3.23;;;;;;;;;;6240681;28;19932;-72
2023/04/04 11:22:04;;;;;;;6.55;2.50;;;;;;;;;;6240750;28;20045;-72
2023/04/04 11:25:20;;;;;;;;;;;;;;;;;;6237926;28;20053;-73
2023/04/04 11:28:28;;;;;;;11.85;2.80;;;;;;;;;;6238864;28;19980;-74
2023/04/04 11:31:33;;;;;;;5.10;2.67;;;;;;;;;;6241453;28;20159;-74
2023/04/04 11:34:37;;;;;;;12.32;2.50;;;;;;;;;;6242248;28;20046;-74
2023/04/04 11:37:44;;;;;;;8.95;2.50;;;;;;;;;;6240968;28;20053;-75
2023/04/04 11:40:53;;;;;;;10.40;2.67;;;;;;;;;;6237332;28;20059;-74
2023/04/04 11:43:55;;;;;;;5.60;2.83;;;;;;;;;;6240498;28;20225;-74
2023/04/04 11:47:01;;;;;;;6.15;2.78;;;;;;;;;;6239961;28;20691;-74
2023/04/04 11:50:08;;;;;;;5.93;2.55;;;;;;;;;;6217620;28;20073;-74
2023/04/04 11:53:11;;;;;;;7.38;2.65;;;;;;;;;;6213285;28;20234;-73
2023/04/04 11:56:16;;;;;;;5.85;2.78;;;;;;;;;;6215345;28;20333;-75
2023/04/04 11:59:19;;;;;;;6.78;2.92;;;;;;;;;;6213281;28;20089;-74
2023/04/04 12:02:22;;;;;;;;;;;;;;;;;;6220564;28;20050;-74
2023/04/04 12:05:24;;;;;;;9.98;3.00;;;;;;;;;;6217516;28;20012;-74
2023/04/04 12:08:28;;;;;;;4.40;2.80;;;;;;;;;;6214802;28;20136;-74
2023/04/04 12:11:30;;;;;;;4.88;2.78;;;;;;;;;;6217394;28;20058;-74
2023/04/04 12:14:32;;;;;;;7.72;3.22;;;;;;;;;;6217222;28;20273;-74
2023/04/04 12:17:34;;;;;;;4.63;2.97;;;;;;;;;;6214424;28;20041;-75
2023/04/04 12:20:38;;;;;;;7.07;3.17;;;;;;;;;;6216343;28;20045;-74
2023/04/04 12:23:43;;;;;;;10.18;3.10;;;;;;;;;;6215422;28;20381;-75
2023/04/04 12:26:47;;;;;;;5.95;2.70;;;;;;;;;;6215929;28;20100;-74
2023/04/04 12:29:49;;;;;;;4.65;2.70;;;;;;;;;;6214859;28;20120;-75
2023/04/04 12:32:52;;;;;;;5.22;2.83;;;;;;;;;;6220557;28;20235;-75
2023/04/04 12:35:55;;;;;;;4.32;2.63;;;;;;;;;;6220518;28;20054;-75
2023/04/04 12:39:00;;;;;;;6.87;2.67;;;;;;;;;;6220775;28;20068;-74
2023/04/04 12:42:02;;;;;;;6.18;2.45;;;;;;;;;;6220960;28;20117;-74
2023/04/04 12:45:05;;;;;;;24.40;17.37;;;;;;;;;;6219903;28;20050;-75
2023/04/04 12:48:12;;;;;;;31.98;23.13;;;;;;;;;;6230424;28;20451;-75
2023/04/04 12:51:14;;;;;;;5.88;4.05;;;;;;;;;;6244015;28;20106;-76
2023/04/04 12:54:27;;;;;;;7.47;2.80;;;;;;;;;;6243828;28;20117;-74
2023/04/04 12:57:29;;;;;;;5.68;3.10;;;;;;;;;;6245801;28;20042;-74
2023/04/04 13:00:31;;;;;;;8.00;3.50;;;;;;;;;;6243781;28;20061;-76
2023/04/04 13:03:33;;;;;;;5.50;3.28;;;;;;;;;;6245310;28;20053;-73
2023/04/04 13:06:37;;;;;;;5.95;2.92;;;;;;;;;;6232768;28;20148;-73
2023/04/04 13:09:52;;;;;;;5.03;3.13;;;;;;;;;;6244242;28;20492;-74
2023/04/04 13:12:58;;;;;;;7.03;2.95;;;;;;;;;;6243585;28;20084;-74
2023/04/04 13:16:00;;;;;;;5.25;3.13;;;;;;;;;;6244161;28;21272;-74
2023/04/04 13:19:03;;;;;;;6.25;3.13;;;;;;;;;;6244263;28;20050;-75
2023/04/04 13:22:16;;;;;;;8.13;2.92;;;;;;;;;;6243916;28;20348;-77
2023/04/04 13:25:20;;;;;;;8.95;3.10;;;;;;;;;;6241323;28;20104;-75
2023/04/04 13:28:21;;;;;;;5.03;3.67;;;;;;;;;;6241599;28;20049;-75
2023/04/04 13:31:25;;;;;;;6.28;2.70;;;;;;;;;;6245278;28;20168;-74
2023/04/04 13:34:27;;;;;;;7.00;3.20;;;;;;;;;;6244996;28;20060;-74
2023/04/04 13:37:29;;;;;;;4.97;2.97;;;;;;;;;;6243948;28;20057;-73
2023/04/04 13:40:32;;;;;;;6.53;3.20;;;;;;;;;;6244037;28;20100;-74
2023/04/04 13:43:36;;;;;;;5.78;3.10;;;;;;;;;;6242913;28;20057;-73
2023/04/04 13:46:38;;;;;;;4.68;2.78;;;;;;;;;;6243684;28;20053;-72
2023/04/04 13:49:40;;;;;;;4.80;2.95;;;;;;;;;;6242233;28;20061;-75
2023/04/04 13:52:41;;;;;;;5.30;3.33;;;;;;;;;;6248734;28;20053;-73
2023/04/04 13:55:45;;;;;;;4.95;3.10;;;;;;;;;;6215150;28;20041;-73
2023/04/04 13:58:46;;;;;;;;;;;;;;;;;;6244922;28;20268;-73
2023/04/04 14:01:48;;;;;;;4.97;3.63;;;;;;;;;;6243351;28;19917;-73
2023/04/04 14:04:50;;;;;;;6.18;2.90;;;;;;;;;;6244825;28;20060;-78
2023/04/04 14:07:52;;;;;;;5.13;3.00;;;;;;;;;;6245410;28;20380;-74
2023/04/04 14:10:55;;;;;;;10.63;3.10;;;;;;;;;;6242672;28;20419;-76
2023/04/04 14:13:57;;;;;;;5.68;3.42;;;;;;;;;;6241613;28;20537;-74
2023/04/04 14:16:59;;;;;;;5.78;3.58;;;;;;;;;;6240163;28;20320;-75
2023/04/04 14:20:01;;;;;;;5.45;3.60;;;;;;;;;;6241302;28;20041;-74
2023/04/04 14:23:02;;;;;;;4.70;3.08;;;;;;;;;;6240770;28;20277;-74
2023/04/04 14:26:06;;;;;;;5.30;3.30;;;;;;;;;;6240330;28;20049;-74
2023/04/04 14:29:07;;;;;;;;;;;;;;;;;;6243044;28;20075;-74
2023/04/04 14:32:10;;;;;;;11.05;3.65;;;;;;;;;;6241398;28;19975;-74
2023/04/04 14:35:11;;;;;;;7.28;3.15;;;;;;;;;;6237931;28;20049;-74
2023/04/04 14:38:13;;;;;;;8.02;3.38;;;;;;;;;;6238666;28;20053;-74
2023/04/04 14:41:17;;;;;;;9.60;3.67;;;;;;;;;;6241401;28;20054;-75
2023/04/04 14:44:20;;;;;;;6.00;3.83;;;;;;;;;;6243112;28;20053;-75
2023/04/04 14:47:22;;;;;;;6.07;3.38;;;;;;;;;;6241112;28;20069;-74
2023/04/04 14:50:24;;;;;;;12.30;3.78;;;;;;;;;;6241865;28;20149;-75
2023/04/04 14:53:25;;;;;;;7.70;3.70;;;;;;;;;;6240871;28;20064;-74
2023/04/04 14:56:31;;;;;;;40.10;28.70;;;;;;;;;;6245595;28;20053;-76
2023/04/04 14:59:33;;;;;;;18.80;11.77;;;;;;;;;;6240200;28;20375;-76
2023/04/04 15:02:35;;;;;;;56.05;36.28;;;;;;;;;;6240991;28;20171;-75
2023/04/04 15:05:36;;;;;;;22.45;12.32;;;;;;;;;;6241376;28;20136;-75
2023/04/04 15:08:38;;;;;;;36.35;5.63;;;;;;;;;;6236719;28;20049;-74
2023/04/04 15:11:41;;;;;;;5.18;3.72;;;;;;;;;;6241681;28;20049;-74
2023/04/04 15:14:43;;;;;;;;;;;;;;;;;;6243081;28;20041;-74
2023/04/04 15:17:44;;;;;;;5.72;3.13;;;;;;;;;;6238781;28;19932;-74
2023/04/04 15:20:46;;;;;;;5.90;3.67;;;;;;;;;;6241187;28;20099;-74
2023/04/04 15:23:48;;;;;;;4.20;3.05;;;;;;;;;;6238128;28;20053;-73
2023/04/04 15:26:55;;;;;;;6.55;3.22;;;;;;;;;;6237065;28;20132;-74
2023/04/04 15:29:56;;;;;;;7.22;3.85;;;;;;;;;;6240032;28;20768;-74
2023/04/04 15:32:59;;;;;;;6.47;3.50;;;;;;;;;;6240037;28;20341;-74
2023/04/04 15:36:01;;;;;;;6.43;3.20;;;;;;;;;;6241487;28;20069;-74
2023/04/04 15:39:03;;;;;;;12.00;3.25;;;;;;;;;;6239607;28;20060;-75
2023/04/04 15:42:06;;;;;;;8.48;3.95;;;;;;;;;;6240516;28;20356;-74
2023/04/04 15:45:08;;;;;;;6.97;3.65;;;;;;;;;;6240765;28;20056;-74
2023/04/04 15:48:10;;;;;;;5.60;3.55;;;;;;;;;;6241170;28;20081;-75
2023/04/04 15:51:12;;;;;;;10.00;4.30;;;;;;;;;;6241436;28;20582;-74
2023/04/04 15:54:13;;;;;;;5.65;3.92;;;;;;;;;;6238873;28;20201;-74
2023/04/04 15:57:16;;;;;;;7.15;3.80;;;;;;;;;;6237882;28;20116;-74
2023/04/04 16:00:18;;;;;;;7.95;4.28;;;;;;;;;;6238461;28;20379;-74
2023/04/04 16:03:20;;;;;;;10.15;4.18;;;;;;;;;;6240902;28;20092;-74
2023/04/04 16:06:22;;;;;;;9.18;4.00;;;;;;;;;;6239918;28;20120;-74
2023/04/04 16:09:24;;;;;;;7.05;3.92;;;;;;;;;;6237874;28;20248;-74
2023/04/04 16:12:27;;;;;;;6.90;3.70;;;;;;;;;;6242246;28;20053;-74
2023/04/04 16:15:28;;;;;;;9.10;3.45;;;;;;;;;;6239082;28;20479;-74
2023/04/04 16:18:30;;;;;;;6.18;3.80;;;;;;;;;;6240189;28;20061;-74
2023/04/04 16:21:32;;;;;;;6.47;3.75;;;;;;;;;;6237839;28;20260;-74
2023/04/04 16:24:34;;;;;;;4.82;3.72;;;;;;;;;;6239464;28;20144;-73
2023/04/04 16:27:37;;;;;;;6.97;3.78;;;;;;;;;;6237620;28;20120;-74
2023/04/04 16:30:39;;;;;;;;;;;;;;;;;;6222974;28;20053;-74
2023/04/04 16:33:40;;;;;;;5.13;4.13;;;;;;;;;;6241306;28;19940;-75
2023/04/04 16:36:42;;;;;;;15.50;3.58;;;;;;;;;;6240700;28;20046;-74
2023/04/04 16:39:45;;;;;;;6.05;3.72;;;;;;;;;;6238342;28;20063;-74
2023/04/04 16:42:48;;;;;;;4.35;3.17;;;;;;;;;;6240842;28;20050;-74
2023/04/04 16:45:51;;;;;;;9.95;3.42;;;;;;;;;;6240508;28;20053;-74
2023/04/04 16:48:53;;;;;;;7.50;3.92;;;;;;;;;;6237249;28;20286;-73
2023/04/04 16:51:54;;;;;;;8.75;4.07;;;;;;;;;;6246272;28;20102;-74
2023/04/04 16:54:56;;;;;;;7.25;4.07;;;;;;;;;;6238969;28;20237;-74
2023/04/04 16:57:59;;;;;;;5.05;3.65;;;;;;;;;;6236658;28;20061;-74
2023/04/04 17:01:01;;;;;;;5.28;3.97;;;;;;;;;;6239966;28;20113;-74
2023/04/04 17:04:03;;;;;;;6.85;3.75;;;;;;;;;;6239073;28;20141;-74
2023/04/04 17:07:05;;;;;;;6.57;3.78;;;;;;;;;;6237838;28;20080;-73
2023/04/04 17:10:08;;;;;;;4.85;3.33;;;;;;;;;;6239648;28;20486;-73
2023/04/04 17:13:11;;;;;;;11.63;3.92;;;;;;;;;;6237734;28;20070;-73
2023/04/04 17:16:12;;;;;;;6.68;3.78;;;;;;;;;;6241378;28;20069;-74
2023/04/04 17:19:14;;;;;;;7.07;3.58;;;;;;;;;;6240535;28;20123;-73
2023/04/04 17:22:16;;;;;;;7.07;3.97;;;;;;;;;;6242592;28;21673;-73
2023/04/04 17:25:19;;;;;;;13.50;4.10;;;;;;;;;;6243622;28;20301;-74
2023/04/04 17:28:22;;;;;;;7.38;3.65;;;;;;;;;;6245161;28;20050;-74
2023/04/04 17:31:24;;;;;;;8.87;3.70;;;;;;;;;;6243672;28;20057;-74
2023/04/04 17:34:26;;;;;;;9.82;3.65;;;;;;;;;;6242330;28;20475;-74
2023/04/04 17:37:29;;;;;;;6.07;3.58;;;;;;;;;;6242871;28;20497;-75
2023/04/04 17:40:31;;;;;;;8.48;4.05;;;;;;;;;;6243583;28;20072;-75
2023/04/04 17:43:34;;;;;;;6.18;3.75;;;;;;;;;;6242362;28;20053;-75
2023/04/04 17:46:36;;;;;;;7.50;3.78;;;;;;;;;;6244736;28;20069;-75
2023/04/04 17:49:38;;;;;;;5.78;3.55;;;;;;;;;;6243652;28;20060;-74
2023/04/04 17:52:40;;;;;;;8.15;3.55;;;;;;;;;;6243979;28;20061;-74
2023/04/04 17:55:42;;;;;;;6.60;3.83;;;;;;;;;;6242143;28;20116;-74
2023/04/04 17:58:45;;;;;;;6.72;3.70;;;;;;;;;;6243226;28;20065;-75
2023/04/04 18:01:46;;;;;;;5.55;3.63;;;;;;;;;;6242395;28;20057;-81
2023/04/04 18:04:50;;;;;;;6.72;3.47;;;;;;;;;;6245978;28;20095;-73
2023/04/04 18:07:52;;;;;;;7.75;3.67;;;;;;;;;;6250900;28;20056;-73
2023/04/04 18:10:53;;;;;;;10.82;3.70;;;;;;;;;;6249822;28;20061;-74
2023/04/04 18:13:56;;;;;;;9.77;3.75;;;;;;;;;;6251624;28;20270;-74
2023/04/04 18:17:02;;;;;;;7.22;3.60;;;;;;;;;;6250004;28;20128;-74